Weather reports worldwide

Advertisment
Sandhaug, Norway (1352): temperature & dewpoint: 05.07.2020 15:00:00 - 11.07.2020 15:00:00 (CEST)Sandhaug, Norway (1352): wind speed & gusts: 05.07.2020 15:00:00 - 11.07.2020 15:00:00 (CEST)Sandhaug, Norway (1352): wind direction: 05.07.2020 15:00:00 - 11.07.2020 15:00:00 (CEST)
Date & Time tt [°C] td [°C] ff [km/h] ff [kn] fx [km/h] fx [kn] dd
11.07.2020 15:00:00 4,4 - 23 12 36 20 WNW
11.07.2020 14:00:00 4,3 - 27 15 41 22 W
11.07.2020 13:00:00 4,1 - 28 15 35 19 WNW
11.07.2020 12:00:00 4,4 - 25 14 40 22 WNW
11.07.2020 11:00:00 3,0 - 27 15 38 21 WNW
11.07.2020 10:00:00 2,3 - 27 14 38 21 WNW
11.07.2020 09:00:00 2,6 - 24 13 33 18 WNW
11.07.2020 08:00:00 2,6 - 28 15 35 19 WNW
11.07.2020 07:00:00 2,1 - 20 11 29 16 WNW
11.07.2020 06:00:00 1,8 - 21 11 29 15 W
11.07.2020 05:00:00 1,5 - 22 12 29 16 WNW
11.07.2020 04:00:00 1,8 - 22 12 31 17 WNW
11.07.2020 03:00:00 2,0 - 22 12 32 18 WNW
11.07.2020 02:00:00 2,3 - 26 14 32 17 W
11.07.2020 01:00:00 2,3 - 18 10 31 17 WNW
11.07.2020 00:00:00 2,8 - 25 14 34 18 WNW
10.07.2020 23:00:00 2,9 - 22 12 31 17 WNW
10.07.2020 22:00:00 2,8 - 16 9 25 14 WNW
10.07.2020 21:00:00 4,5 - 21 11 33 18 WNW
10.07.2020 20:00:00 5,7 - 25 14 33 18 NW
10.07.2020 19:00:00 6,9 - 20 11 29 16 NNW
10.07.2020 18:00:00 7,2 - 21 11 33 18 NW
10.07.2020 17:00:00 8,5 - 24 13 38 21 WNW
10.07.2020 16:00:00 7,4 - 25 14 34 18 WNW
10.07.2020 15:00:00 7,5 - 23 12 29 16 WNW
10.07.2020 14:00:00 7,1 - 23 12 29 16 WNW
10.07.2020 13:00:00 6,9 - 10 5 21 12 WNW
10.07.2020 12:00:00 8,0 - 8 4 13 7 WNW
10.07.2020 11:00:00 6,3 - 11 6 14 8 WNW
10.07.2020 10:00:00 6,8 - 4 2 9 5 WNW
10.07.2020 09:00:00 4,0 - 4 2 7 4 W
10.07.2020 08:00:00 3,1 - 3 2 5 3 WNW
10.07.2020 07:00:00 1,1 - 5 3 7 4 W
10.07.2020 06:00:00 0,3 - 3 2 7 4 WNW
10.07.2020 05:00:00 -0,6 - 8 4 9 5 NW
10.07.2020 04:00:00 0,4 - 4 2 5 3 NW
10.07.2020 03:00:00 0,2 - 5 3 10 6 WNW
10.07.2020 02:00:00 0,8 - 4 2 10 6 NW
10.07.2020 01:00:00 1,8 - 10 5 11 6 NNW
10.07.2020 00:00:00 1,0 - 6 4 9 5 NW
09.07.2020 23:00:00 1,4 - 8 4 14 8 WNW
09.07.2020 22:00:00 3,6 - 11 6 23 12 NW
09.07.2020 21:00:00 5,6 - 18 10 26 14 NNW
09.07.2020 20:00:00 6,1 - 16 9 27 15 WNW
09.07.2020 19:00:00 6,7 - 21 11 25 13 WNW
09.07.2020 18:00:00 7,0 - 20 11 28 15 WNW
09.07.2020 17:00:00 6,4 - 16 9 23 12 WNW
09.07.2020 16:00:00 7,2 - 14 8 21 12 WNW
09.07.2020 15:00:00 6,7 - 15 8 22 12 WNW
09.07.2020 14:00:00 6,1 - 14 7 23 13 W
09.07.2020 13:00:00 6,0 - 15 8 22 12 WNW
09.07.2020 12:00:00 5,1 - 13 7 22 12 WNW
09.07.2020 11:00:00 4,2 - 13 7 19 11 W
09.07.2020 10:00:00 3,2 - 13 7 25 14 WNW
09.07.2020 09:00:00 3,0 - 18 10 28 15 WNW
09.07.2020 08:00:00 2,1 - 17 9 22 12 WNW
09.07.2020 07:00:00 1,8 - 11 6 16 9 NW
09.07.2020 06:00:00 1,4 - 6 3 28 15 NW
09.07.2020 05:00:00 0,1 - 22 12 27 15 NW
09.07.2020 04:00:00 -1,4 - 6 4 16 9 NW
09.07.2020 03:00:00 -0,5 - 16 9 29 16 NW
09.07.2020 02:00:00 -0,1 - 12 6 23 12 NW
09.07.2020 01:00:00 0,8 - 17 9 23 12 WNW
09.07.2020 00:00:00 0,5 - 10 6 27 15 NW
08.07.2020 23:00:00 1,4 - 22 12 34 19 WNW
08.07.2020 22:00:00 1,4 - 30 16 36 19 WNW
08.07.2020 21:00:00 2,5 - 28 15 35 19 WNW
08.07.2020 20:00:00 2,1 - 27 15 35 19 W
08.07.2020 19:00:00 3,1 - 29 16 38 20 WNW
08.07.2020 18:00:00 2,9 - 31 17 38 21 W
08.07.2020 17:00:00 3,1 - 30 16 41 22 W
08.07.2020 16:00:00 3,7 - 29 16 41 22 W
08.07.2020 15:00:00 3,9 - 27 15 37 20 W
08.07.2020 14:00:00 4,0 - 24 13 40 22 WNW
08.07.2020 13:00:00 2,9 - 25 14 37 20 WNW
08.07.2020 12:00:00 4,1 - 24 13 34 18 WNW
08.07.2020 11:00:00 1,9 - 21 11 29 15 W
08.07.2020 10:00:00 1,4 - 22 12 28 15 W
08.07.2020 09:00:00 1,1 - 22 12 27 15 WNW
08.07.2020 08:00:00 1,6 - 16 9 27 15 WNW
08.07.2020 07:00:00 0,6 - 19 11 26 14 W
08.07.2020 06:00:00 0,7 - 18 10 37 20 WNW
08.07.2020 05:00:00 0,5 - 22 12 29 16 WNW
08.07.2020 04:00:00 0,2 - 19 10 34 18 WNW
08.07.2020 03:00:00 0,3 - 30 16 36 20 W
08.07.2020 02:00:00 0,2 - 24 13 33 18 WNW
08.07.2020 01:00:00 0,9 - 19 10 31 17 WNW
08.07.2020 00:00:00 1,1 - 22 12 32 17 WNW
07.07.2020 23:00:00 1,0 - 25 14 35 19 W
07.07.2020 22:00:00 1,4 - 27 15 40 22 WNW
07.07.2020 21:00:00 2,6 - 31 17 42 23 WNW
07.07.2020 20:00:00 2,9 - 29 15 42 23 WNW
07.07.2020 19:00:00 3,0 - 32 18 49 26 WNW
07.07.2020 18:00:00 3,0 - 35 19 45 24 WNW
07.07.2020 17:00:00 3,6 - 38 20 48 26 WNW
07.07.2020 16:00:00 3,1 - 33 18 45 24 WNW
07.07.2020 15:00:00 2,1 - 33 18 41 22 WNW
07.07.2020 14:00:00 1,6 - 27 14 33 18 WNW
07.07.2020 13:00:00 0,8 0,7 23 13 30 16 WNW
07.07.2020 12:00:00 1,1 - 19 10 25 14 WNW
07.07.2020 11:00:00 1,5 - 16 8 24 13 W
07.07.2020 10:00:00 1,7 - 16 9 23 12 WNW
07.07.2020 09:00:00 0,6 - 10 5 24 13 WNW
07.07.2020 08:00:00 0,1 - 14 7 25 14 W
07.07.2020 07:00:00 0,2 - 20 11 26 14 W
07.07.2020 06:00:00 0,2 - 16 9 23 12 WSW
07.07.2020 05:00:00 0,1 - 2 1 5 3 SE
07.07.2020 04:00:00 -0,3 - 0 0 7 4 N
07.07.2020 03:00:00 0,0 - 7 4 13 7 WNW
07.07.2020 02:00:00 -0,4 - 10 5 26 14 W
07.07.2020 01:00:00 0,0 - 20 11 32 18 W
07.07.2020 00:00:00 0,4 - 16 9 33 18 WNW
06.07.2020 23:00:00 0,6 - 25 14 45 24 WNW
06.07.2020 22:00:00 1,0 - 38 21 49 26 W
06.07.2020 21:00:00 1,5 - 38 20 45 24 W
06.07.2020 20:00:00 1,9 - 35 19 49 26 W
06.07.2020 19:00:00 2,0 - 39 21 52 28 WNW
06.07.2020 18:00:00 2,2 - 45 24 61 33 WNW
06.07.2020 17:00:00 2,2 - 44 24 58 31 WNW
06.07.2020 16:00:00 3,3 - 44 24 68 37 WNW
06.07.2020 15:00:00 3,3 - 46 25 64 35 WNW
06.07.2020 14:00:00 3,5 - 49 26 64 35 WNW
06.07.2020 13:00:00 4,2 - 48 26 63 34 WNW
06.07.2020 12:00:00 4,1 - 42 23 56 30 WNW
06.07.2020 11:00:00 3,7 - 40 21 55 30 WNW
06.07.2020 10:00:00 4,3 - 36 20 48 26 WNW
06.07.2020 09:00:00 2,7 - 19 10 28 15 WNW
06.07.2020 08:00:00 3,6 - 23 12 34 19 W
06.07.2020 07:00:00 2,8 - 19 10 44 24 W
06.07.2020 06:00:00 2,6 - 34 19 45 24 WSW
06.07.2020 05:00:00 2,4 - 30 16 41 22 WSW
06.07.2020 04:00:00 2,3 - 31 17 44 24 WSW
06.07.2020 03:00:00 2,3 - 31 17 39 21 WSW
06.07.2020 02:00:00 2,3 - 31 17 42 23 WSW
06.07.2020 01:00:00 2,3 - 32 17 42 23 WSW
06.07.2020 00:00:00 2,4 - 31 17 39 21 SW
05.07.2020 23:00:00 2,6 - 33 18 43 23 WSW
05.07.2020 22:00:00 3,2 - 31 17 49 26 WSW
05.07.2020 21:00:00 3,7 - 41 22 57 31 WSW
05.07.2020 20:00:00 4,9 - 29 15 52 28 WSW
05.07.2020 19:00:00 4,8 - 37 20 54 29 WSW
05.07.2020 18:00:00 6,1 - 35 19 48 26 WSW
05.07.2020 17:00:00 7,6 - 19 11 31 17 S
05.07.2020 16:00:00 8,8 - 16 9 27 15 S
05.07.2020 15:00:00 8,7 - 21 12 29 16 S

tt = temperature
td = dewpoint
ff = wind speed
fx = gusts
dd = wind direction

Next stations